sensor_id;sensor_type;location;lat;lon;timestamp;P1;durP1;ratioP1;P2;durP2;ratioP2
71969;SDS011;59838;52.152;5.436;2022-09-29T00:01:33;2.03;;;1.05;;
71969;SDS011;59838;52.152;5.436;2022-09-29T00:04:00;2.23;;;1.07;;
71969;SDS011;59838;52.152;5.436;2022-09-29T00:06:26;2.28;;;1.27;;
71969;SDS011;59838;52.152;5.436;2022-09-29T00:08:53;2.83;;;1.20;;
71969;SDS011;59838;52.152;5.436;2022-09-29T00:11:19;2.22;;;1.33;;
71969;SDS011;59838;52.152;5.436;2022-09-29T00:13:46;2.20;;;1.40;;
71969;SDS011;59838;52.152;5.436;2022-09-29T00:16:13;2.47;;;1.30;;
71969;SDS011;59838;52.152;5.436;2022-09-29T00:18:39;2.35;;;1.48;;
71969;SDS011;59838;52.152;5.436;2022-09-29T00:21:07;3.15;;;1.88;;
71969;SDS011;59838;52.152;5.436;2022-09-29T00:23:36;1.90;;;1.40;;
71969;SDS011;59838;52.152;5.436;2022-09-29T00:26:04;3.03;;;1.30;;
71969;SDS011;59838;52.152;5.436;2022-09-29T00:28:40;3.17;;;1.73;;
71969;SDS011;59838;52.152;5.436;2022-09-29T00:31:08;4.13;;;1.70;;
71969;SDS011;59838;52.152;5.436;2022-09-29T00:33:36;3.78;;;1.30;;
71969;SDS011;59838;52.152;5.436;2022-09-29T00:36:04;2.28;;;1.33;;
71969;SDS011;59838;52.152;5.436;2022-09-29T00:38:42;2.22;;;1.52;;
71969;SDS011;59838;52.152;5.436;2022-09-29T00:41:13;2.17;;;0.97;;
71969;SDS011;59838;52.152;5.436;2022-09-29T00:46:16;3.08;;;1.20;;
71969;SDS011;59838;52.152;5.436;2022-09-29T00:48:49;1.77;;;0.93;;
71969;SDS011;59838;52.152;5.436;2022-09-29T00:51:16;1.70;;;1.00;;
71969;SDS011;59838;52.152;5.436;2022-09-29T00:53:45;3.00;;;1.00;;
71969;SDS011;59838;52.152;5.436;2022-09-29T00:56:13;1.73;;;1.13;;
71969;SDS011;59838;52.152;5.436;2022-09-29T00:58:42;2.13;;;1.42;;
71969;SDS011;59838;52.152;5.436;2022-09-29T01:01:10;2.28;;;1.15;;
71969;SDS011;59838;52.152;5.436;2022-09-29T01:03:39;1.70;;;1.00;;
71969;SDS011;59838;52.152;5.436;2022-09-29T01:06:12;1.97;;;1.20;;
71969;SDS011;59838;52.152;5.436;2022-09-29T01:08:51;2.45;;;1.70;;
71969;SDS011;59838;52.152;5.436;2022-09-29T01:11:24;2.53;;;1.42;;
71969;SDS011;59838;52.152;5.436;2022-09-29T01:13:51;2.70;;;1.60;;
71969;SDS011;59838;52.152;5.436;2022-09-29T01:16:19;2.25;;;1.38;;
71969;SDS011;59838;52.152;5.436;2022-09-29T01:18:46;2.20;;;1.67;;
71969;SDS011;59838;52.152;5.436;2022-09-29T01:21:26;3.75;;;1.10;;
71969;SDS011;59838;52.152;5.436;2022-09-29T01:30:39;3.10;;;1.42;;
71969;SDS011;59838;52.152;5.436;2022-09-29T01:36:03;3.05;;;1.20;;
71969;SDS011;59838;52.152;5.436;2022-09-29T01:38:50;1.80;;;1.15;;
71969;SDS011;59838;52.152;5.436;2022-09-29T01:49:30;2.38;;;1.58;;
71969;SDS011;59838;52.152;5.436;2022-09-29T01:54:38;3.45;;;2.00;;
71969;SDS011;59838;52.152;5.436;2022-09-29T01:57:15;2.95;;;1.60;;
71969;SDS011;59838;52.152;5.436;2022-09-29T01:59:48;4.20;;;2.00;;
71969;SDS011;59838;52.152;5.436;2022-09-29T02:02:20;4.78;;;1.77;;
71969;SDS011;59838;52.152;5.436;2022-09-29T02:04:56;3.78;;;1.70;;
71969;SDS011;59838;52.152;5.436;2022-09-29T02:07:30;2.63;;;1.42;;
71969;SDS011;59838;52.152;5.436;2022-09-29T02:10:08;2.40;;;1.45;;
71969;SDS011;59838;52.152;5.436;2022-09-29T02:12:37;3.43;;;1.03;;
71969;SDS011;59838;52.152;5.436;2022-09-29T02:15:08;0.98;;;0.50;;
71969;SDS011;59838;52.152;5.436;2022-09-29T02:17:40;1.17;;;0.40;;
71969;SDS011;59838;52.152;5.436;2022-09-29T02:20:10;1.23;;;0.63;;
71969;SDS011;59838;52.152;5.436;2022-09-29T02:22:38;1.02;;;0.75;;
71969;SDS011;59838;52.152;5.436;2022-09-29T02:25:06;1.97;;;0.60;;
71969;SDS011;59838;52.152;5.436;2022-09-29T02:27:36;5.95;;;0.70;;
71969;SDS011;59838;52.152;5.436;2022-09-29T02:30:03;3.38;;;0.47;;
71969;SDS011;59838;52.152;5.436;2022-09-29T02:32:32;1.25;;;0.40;;
71969;SDS011;59838;52.152;5.436;2022-09-29T02:35:00;0.82;;;0.50;;
71969;SDS011;59838;52.152;5.436;2022-09-29T02:37:39;0.40;;;0.20;;
71969;SDS011;59838;52.152;5.436;2022-09-29T02:40:15;8.50;;;0.57;;
71969;SDS011;59838;52.152;5.436;2022-09-29T02:42:50;1.08;;;0.47;;
71969;SDS011;59838;52.152;5.436;2022-09-29T02:48:23;13.98;;;0.50;;
71969;SDS011;59838;52.152;5.436;2022-09-29T02:53:53;2.03;;;0.95;;
71969;SDS011;59838;52.152;5.436;2022-09-29T02:57:00;11.05;;;1.00;;
71969;SDS011;59838;52.152;5.436;2022-09-29T02:59:46;1.27;;;0.75;;
71969;SDS011;59838;52.152;5.436;2022-09-29T03:02:22;2.83;;;0.68;;
71969;SDS011;59838;52.152;5.436;2022-09-29T03:04:49;18.60;;;1.17;;
71969;SDS011;59838;52.152;5.436;2022-09-29T03:07:16;3.35;;;0.80;;
71969;SDS011;59838;52.152;5.436;2022-09-29T03:09:42;9.85;;;1.13;;
71969;SDS011;59838;52.152;5.436;2022-09-29T03:12:09;4.22;;;1.40;;
71969;SDS011;59838;52.152;5.436;2022-09-29T03:14:35;7.50;;;0.90;;
71969;SDS011;59838;52.152;5.436;2022-09-29T03:17:02;1.75;;;0.80;;
71969;SDS011;59838;52.152;5.436;2022-09-29T03:19:28;20.75;;;1.77;;
71969;SDS011;59838;52.152;5.436;2022-09-29T03:21:55;7.05;;;1.35;;
71969;SDS011;59838;52.152;5.436;2022-09-29T03:24:21;4.32;;;1.08;;
71969;SDS011;59838;52.152;5.436;2022-09-29T03:26:47;1.95;;;0.90;;
71969;SDS011;59838;52.152;5.436;2022-09-29T03:29:14;27.57;;;1.50;;
71969;SDS011;59838;52.152;5.436;2022-09-29T03:31:41;11.15;;;1.05;;
71969;SDS011;59838;52.152;5.436;2022-09-29T03:34:07;23.50;;;1.10;;
71969;SDS011;59838;52.152;5.436;2022-09-29T03:36:34;1.35;;;0.50;;
71969;SDS011;59838;52.152;5.436;2022-09-29T03:39:00;0.98;;;0.47;;
71969;SDS011;59838;52.152;5.436;2022-09-29T03:41:26;1.10;;;0.40;;
71969;SDS011;59838;52.152;5.436;2022-09-29T03:43:53;1.00;;;0.40;;
71969;SDS011;59838;52.152;5.436;2022-09-29T03:46:19;0.88;;;0.47;;
71969;SDS011;59838;52.152;5.436;2022-09-29T03:48:45;2.05;;;0.50;;
71969;SDS011;59838;52.152;5.436;2022-09-29T03:51:12;2.25;;;1.00;;
71969;SDS011;59838;52.152;5.436;2022-09-29T03:53:38;1.38;;;0.60;;
71969;SDS011;59838;52.152;5.436;2022-09-29T03:56:04;1.10;;;0.60;;
71969;SDS011;59838;52.152;5.436;2022-09-29T03:58:31;1.58;;;0.65;;
71969;SDS011;59838;52.152;5.436;2022-09-29T04:00:58;4.22;;;0.93;;
71969;SDS011;59838;52.152;5.436;2022-09-29T04:03:24;1.40;;;0.70;;
71969;SDS011;59838;52.152;5.436;2022-09-29T04:05:51;2.43;;;0.57;;
71969;SDS011;59838;52.152;5.436;2022-09-29T04:08:17;1.00;;;0.50;;
71969;SDS011;59838;52.152;5.436;2022-09-29T04:10:44;2.58;;;0.93;;
71969;SDS011;59838;52.152;5.436;2022-09-29T04:13:12;1.60;;;0.52;;
71969;SDS011;59838;52.152;5.436;2022-09-29T04:15:44;3.20;;;0.50;;
71969;SDS011;59838;52.152;5.436;2022-09-29T04:18:11;1.47;;;0.33;;
71969;SDS011;59838;52.152;5.436;2022-09-29T04:20:37;5.68;;;0.80;;
71969;SDS011;59838;52.152;5.436;2022-09-29T04:23:04;10.30;;;0.60;;
71969;SDS011;59838;52.152;5.436;2022-09-29T04:25:32;1.63;;;0.60;;
71969;SDS011;59838;52.152;5.436;2022-09-29T04:27:59;3.50;;;0.90;;
71969;SDS011;59838;52.152;5.436;2022-09-29T04:30:25;2.75;;;0.60;;
71969;SDS011;59838;52.152;5.436;2022-09-29T04:32:51;1.10;;;0.60;;
71969;SDS011;59838;52.152;5.436;2022-09-29T04:35:18;3.33;;;0.60;;
71969;SDS011;59838;52.152;5.436;2022-09-29T04:37:44;8.00;;;0.70;;
71969;SDS011;59838;52.152;5.436;2022-09-29T04:40:11;1.58;;;0.60;;
71969;SDS011;59838;52.152;5.436;2022-09-29T04:42:37;3.97;;;1.00;;
71969;SDS011;59838;52.152;5.436;2022-09-29T04:45:04;1.90;;;0.80;;
71969;SDS011;59838;52.152;5.436;2022-09-29T04:47:31;4.03;;;0.68;;
71969;SDS011;59838;52.152;5.436;2022-09-29T04:49:57;9.60;;;1.05;;
71969;SDS011;59838;52.152;5.436;2022-09-29T04:52:23;1.35;;;0.75;;
71969;SDS011;59838;52.152;5.436;2022-09-29T04:54:50;1.60;;;0.70;;
71969;SDS011;59838;52.152;5.436;2022-09-29T04:57:16;7.25;;;0.70;;
71969;SDS011;59838;52.152;5.436;2022-09-29T04:59:43;3.45;;;0.70;;
71969;SDS011;59838;52.152;5.436;2022-09-29T05:02:09;1.42;;;0.60;;
71969;SDS011;59838;52.152;5.436;2022-09-29T05:04:36;7.95;;;0.95;;
71969;SDS011;59838;52.152;5.436;2022-09-29T05:07:02;1.37;;;0.63;;
71969;SDS011;59838;52.152;5.436;2022-09-29T05:09:28;1.63;;;0.65;;
71969;SDS011;59838;52.152;5.436;2022-09-29T05:11:59;1.20;;;0.60;;
71969;SDS011;59838;52.152;5.436;2022-09-29T05:14:25;0.88;;;0.50;;
71969;SDS011;59838;52.152;5.436;2022-09-29T05:16:53;8.90;;;0.90;;
71969;SDS011;59838;52.152;5.436;2022-09-29T05:19:20;1.30;;;0.47;;
71969;SDS011;59838;52.152;5.436;2022-09-29T05:21:47;1.90;;;0.63;;
71969;SDS011;59838;52.152;5.436;2022-09-29T05:24:13;1.77;;;0.65;;
71969;SDS011;59838;52.152;5.436;2022-09-29T05:26:39;1.50;;;0.80;;
71969;SDS011;59838;52.152;5.436;2022-09-29T05:29:06;10.30;;;0.80;;
71969;SDS011;59838;52.152;5.436;2022-09-29T05:31:32;1.67;;;0.70;;
71969;SDS011;59838;52.152;5.436;2022-09-29T05:33:59;8.88;;;1.13;;
71969;SDS011;59838;52.152;5.436;2022-09-29T05:36:25;1.63;;;0.80;;
71969;SDS011;59838;52.152;5.436;2022-09-29T05:38:52;2.78;;;1.23;;
71969;SDS011;59838;52.152;5.436;2022-09-29T05:41:18;1.00;;;0.65;;
71969;SDS011;59838;52.152;5.436;2022-09-29T05:43:48;1.67;;;0.70;;
71969;SDS011;59838;52.152;5.436;2022-09-29T05:46:15;4.30;;;0.70;;
71969;SDS011;59838;52.152;5.436;2022-09-29T05:48:47;1.60;;;0.77;;
71969;SDS011;59838;52.152;5.436;2022-09-29T05:51:15;0.93;;;0.40;;
71969;SDS011;59838;52.152;5.436;2022-09-29T05:53:48;5.07;;;0.63;;
71969;SDS011;59838;52.152;5.436;2022-09-29T05:56:16;1.63;;;0.85;;
71969;SDS011;59838;52.152;5.436;2022-09-29T05:58:44;13.15;;;1.25;;
71969;SDS011;59838;52.152;5.436;2022-09-29T06:01:12;19.60;;;1.83;;
71969;SDS011;59838;52.152;5.436;2022-09-29T06:03:40;6.07;;;2.03;;
71969;SDS011;59838;52.152;5.436;2022-09-29T06:06:11;3.22;;;1.90;;
71969;SDS011;59838;52.152;5.436;2022-09-29T06:08:42;4.33;;;1.80;;
71969;SDS011;59838;52.152;5.436;2022-09-29T06:11:10;12.73;;;1.88;;
71969;SDS011;59838;52.152;5.436;2022-09-29T06:13:41;3.38;;;1.77;;
71969;SDS011;59838;52.152;5.436;2022-09-29T06:16:10;5.07;;;1.35;;
71969;SDS011;59838;52.152;5.436;2022-09-29T06:18:38;5.13;;;1.42;;
71969;SDS011;59838;52.152;5.436;2022-09-29T06:21:05;16.90;;;1.63;;
71969;SDS011;59838;52.152;5.436;2022-09-29T06:23:34;13.70;;;1.48;;
71969;SDS011;59838;52.152;5.436;2022-09-29T06:26:02;18.58;;;2.20;;
71969;SDS011;59838;52.152;5.436;2022-09-29T06:28:31;15.95;;;2.03;;
71969;SDS011;59838;52.152;5.436;2022-09-29T06:30:58;18.20;;;2.55;;
71969;SDS011;59838;52.152;5.436;2022-09-29T06:33:45;13.17;;;2.13;;
71969;SDS011;59838;52.152;5.436;2022-09-29T06:36:16;11.18;;;1.75;;
71969;SDS011;59838;52.152;5.436;2022-09-29T06:39:07;9.07;;;2.13;;
71969;SDS011;59838;52.152;5.436;2022-09-29T06:41:37;16.77;;;2.10;;
71969;SDS011;59838;52.152;5.436;2022-09-29T06:44:03;14.60;;;2.20;;
71969;SDS011;59838;52.152;5.436;2022-09-29T06:46:30;11.37;;;2.10;;
71969;SDS011;59838;52.152;5.436;2022-09-29T06:48:56;10.95;;;1.98;;
71969;SDS011;59838;52.152;5.436;2022-09-29T06:51:24;16.02;;;1.90;;
71969;SDS011;59838;52.152;5.436;2022-09-29T06:54:12;3.47;;;1.73;;
71969;SDS011;59838;52.152;5.436;2022-09-29T06:56:39;8.10;;;2.03;;
71969;SDS011;59838;52.152;5.436;2022-09-29T06:59:07;2.30;;;1.90;;
71969;SDS011;59838;52.152;5.436;2022-09-29T07:01:33;3.20;;;1.85;;
71969;SDS011;59838;52.152;5.436;2022-09-29T07:04:00;2.83;;;1.98;;
71969;SDS011;59838;52.152;5.436;2022-09-29T07:06:27;7.20;;;1.80;;
71969;SDS011;59838;52.152;5.436;2022-09-29T07:08:57;11.73;;;2.67;;
71969;SDS011;59838;52.152;5.436;2022-09-29T07:11:24;13.87;;;2.43;;
71969;SDS011;59838;52.152;5.436;2022-09-29T07:13:51;19.88;;;2.88;;
71969;SDS011;59838;52.152;5.436;2022-09-29T07:16:20;14.15;;;2.00;;
71969;SDS011;59838;52.152;5.436;2022-09-29T07:18:50;15.75;;;2.40;;
71969;SDS011;59838;52.152;5.436;2022-09-29T07:21:18;5.50;;;2.22;;
71969;SDS011;59838;52.152;5.436;2022-09-29T07:23:47;5.37;;;1.53;;
71969;SDS011;59838;52.152;5.436;2022-09-29T07:26:14;2.92;;;2.53;;
71969;SDS011;59838;52.152;5.436;2022-09-29T07:28:45;16.70;;;2.83;;
71969;SDS011;59838;52.152;5.436;2022-09-29T07:31:13;5.97;;;2.03;;
71969;SDS011;59838;52.152;5.436;2022-09-29T07:33:42;11.98;;;2.95;;
71969;SDS011;59838;52.152;5.436;2022-09-29T07:36:09;7.27;;;2.87;;
71969;SDS011;59838;52.152;5.436;2022-09-29T07:38:36;6.43;;;3.63;;
71969;SDS011;59838;52.152;5.436;2022-09-29T07:41:03;18.10;;;4.93;;
71969;SDS011;59838;52.152;5.436;2022-09-29T07:43:32;11.30;;;4.63;;
71969;SDS011;59838;52.152;5.436;2022-09-29T07:45:58;6.10;;;4.28;;
71969;SDS011;59838;52.152;5.436;2022-09-29T07:48:28;31.27;;;4.90;;
71969;SDS011;59838;52.152;5.436;2022-09-29T07:51:11;17.58;;;4.50;;
71969;SDS011;59838;52.152;5.436;2022-09-29T07:53:39;15.57;;;5.22;;
71969;SDS011;59838;52.152;5.436;2022-09-29T07:56:06;9.38;;;4.85;;
71969;SDS011;59838;52.152;5.436;2022-09-29T07:58:34;16.20;;;5.32;;
71969;SDS011;59838;52.152;5.436;2022-09-29T08:01:01;12.33;;;6.00;;
71969;SDS011;59838;52.152;5.436;2022-09-29T08:03:31;10.70;;;4.75;;
71969;SDS011;59838;52.152;5.436;2022-09-29T08:05:58;24.13;;;5.85;;
71969;SDS011;59838;52.152;5.436;2022-09-29T08:08:25;15.13;;;5.22;;
71969;SDS011;59838;52.152;5.436;2022-09-29T08:10:59;49.35;;;6.65;;
71969;SDS011;59838;52.152;5.436;2022-09-29T08:13:26;18.20;;;7.20;;
71969;SDS011;59838;52.152;5.436;2022-09-29T08:15:56;38.97;;;7.57;;
71969;SDS011;59838;52.152;5.436;2022-09-29T08:18:27;15.65;;;7.95;;
71969;SDS011;59838;52.152;5.436;2022-09-29T08:20:54;17.90;;;8.40;;
71969;SDS011;59838;52.152;5.436;2022-09-29T08:23:25;27.65;;;8.43;;
71969;SDS011;59838;52.152;5.436;2022-09-29T08:25:58;13.63;;;7.77;;
71969;SDS011;59838;52.152;5.436;2022-09-29T08:28:28;21.88;;;8.23;;
71969;SDS011;59838;52.152;5.436;2022-09-29T08:31:06;30.02;;;10.02;;
71969;SDS011;59838;52.152;5.436;2022-09-29T08:33:34;15.52;;;9.15;;
71969;SDS011;59838;52.152;5.436;2022-09-29T08:36:02;27.98;;;9.88;;
71969;SDS011;59838;52.152;5.436;2022-09-29T08:38:31;18.57;;;9.60;;
71969;SDS011;59838;52.152;5.436;2022-09-29T08:41:01;23.08;;;11.40;;
71969;SDS011;59838;52.152;5.436;2022-09-29T08:43:38;19.13;;;11.15;;
71969;SDS011;59838;52.152;5.436;2022-09-29T08:46:10;19.23;;;10.77;;
71969;SDS011;59838;52.152;5.436;2022-09-29T08:49:02;21.70;;;11.77;;
71969;SDS011;59838;52.152;5.436;2022-09-29T08:51:42;18.43;;;10.67;;
71969;SDS011;59838;52.152;5.436;2022-09-29T08:54:26;23.08;;;11.75;;
71969;SDS011;59838;52.152;5.436;2022-09-29T08:57:04;23.30;;;11.88;;
71969;SDS011;59838;52.152;5.436;2022-09-29T08:59:31;17.33;;;10.50;;
71969;SDS011;59838;52.152;5.436;2022-09-29T09:02:12;22.00;;;11.40;;
71969;SDS011;59838;52.152;5.436;2022-09-29T09:04:52;19.10;;;10.97;;
71969;SDS011;59838;52.152;5.436;2022-09-29T09:07:25;26.58;;;11.10;;
71969;SDS011;59838;52.152;5.436;2022-09-29T09:10:13;19.20;;;11.80;;
71969;SDS011;59838;52.152;5.436;2022-09-29T09:21:39;19.00;;;12.73;;
71969;SDS011;59838;52.152;5.436;2022-09-29T09:24:14;21.05;;;12.60;;
71969;SDS011;59838;52.152;5.436;2022-09-29T09:26:47;22.15;;;13.68;;
71969;SDS011;59838;52.152;5.436;2022-09-29T09:29:22;23.67;;;13.88;;
71969;SDS011;59838;52.152;5.436;2022-09-29T09:32:00;23.13;;;12.50;;
71969;SDS011;59838;52.152;5.436;2022-09-29T09:34:43;25.08;;;13.85;;
71969;SDS011;59838;52.152;5.436;2022-09-29T09:37:15;23.80;;;13.40;;
71969;SDS011;59838;52.152;5.436;2022-09-29T09:42:13;20.52;;;13.60;;
71969;SDS011;59838;52.152;5.436;2022-09-29T09:47:47;20.98;;;13.70;;
71969;SDS011;59838;52.152;5.436;2022-09-29T09:50:19;24.05;;;13.77;;
71969;SDS011;59838;52.152;5.436;2022-09-29T09:52:52;22.58;;;14.30;;
71969;SDS011;59838;52.152;5.436;2022-09-29T09:55:26;21.25;;;13.80;;
71969;SDS011;59838;52.152;5.436;2022-09-29T10:00:49;22.83;;;13.90;;
71969;SDS011;59838;52.152;5.436;2022-09-29T10:03:19;27.08;;;14.30;;
71969;SDS011;59838;52.152;5.436;2022-09-29T10:05:46;22.20;;;13.63;;
71969;SDS011;59838;52.152;5.436;2022-09-29T10:11:03;22.07;;;13.97;;
71969;SDS011;59838;52.152;5.436;2022-09-29T10:13:47;24.88;;;14.73;;
71969;SDS011;59838;52.152;5.436;2022-09-29T10:16:25;24.60;;;15.32;;
71969;SDS011;59838;52.152;5.436;2022-09-29T10:18:56;21.95;;;14.32;;
71969;SDS011;59838;52.152;5.436;2022-09-29T10:24:19;22.70;;;15.03;;
71969;SDS011;59838;52.152;5.436;2022-09-29T10:26:46;28.55;;;17.00;;
71969;SDS011;59838;52.152;5.436;2022-09-29T10:32:07;28.85;;;18.65;;
71969;SDS011;59838;52.152;5.436;2022-09-29T10:34:35;30.67;;;17.60;;
71969;SDS011;59838;52.152;5.436;2022-09-29T10:40:03;27.88;;;16.67;;
71969;SDS011;59838;52.152;5.436;2022-09-29T10:42:40;27.42;;;15.55;;
71969;SDS011;59838;52.152;5.436;2022-09-29T10:45:12;23.98;;;15.82;;
71969;SDS011;59838;52.152;5.436;2022-09-29T10:47:45;22.17;;;14.43;;
71969;SDS011;59838;52.152;5.436;2022-09-29T10:53:34;23.20;;;14.43;;
71969;SDS011;59838;52.152;5.436;2022-09-29T10:56:19;22.80;;;14.75;;
71969;SDS011;59838;52.152;5.436;2022-09-29T10:58:54;24.42;;;14.18;;
71969;SDS011;59838;52.152;5.436;2022-09-29T11:01:31;21.83;;;13.40;;
71969;SDS011;59838;52.152;5.436;2022-09-29T11:04:02;23.03;;;13.60;;
71969;SDS011;59838;52.152;5.436;2022-09-29T11:06:33;23.33;;;13.30;;
71969;SDS011;59838;52.152;5.436;2022-09-29T11:09:24;19.42;;;11.73;;
71969;SDS011;59838;52.152;5.436;2022-09-29T11:19:54;14.68;;;10.10;;
71969;SDS011;59838;52.152;5.436;2022-09-29T11:22:27;14.88;;;9.05;;
71969;SDS011;59838;52.152;5.436;2022-09-29T11:28:06;15.48;;;9.55;;
71969;SDS011;59838;52.152;5.436;2022-09-29T11:36:59;12.63;;;8.07;;
71969;SDS011;59838;52.152;5.436;2022-09-29T11:39:55;9.93;;;7.50;;
71969;SDS011;59838;52.152;5.436;2022-09-29T11:42:43;11.98;;;8.27;;
71969;SDS011;59838;52.152;5.436;2022-09-29T11:46:26;11.57;;;7.20;;
71969;SDS011;59838;52.152;5.436;2022-09-29T11:48:34;14.80;;;7.00;;
71969;SDS011;59838;52.152;5.436;2022-09-29T11:53:54;11.50;;;6.40;;
71969;SDS011;59838;52.152;5.436;2022-09-29T11:56:47;7.13;;;5.10;;
71969;SDS011;59838;52.152;5.436;2022-09-29T11:59:32;6.90;;;4.57;;
71969;SDS011;59838;52.152;5.436;2022-09-29T12:02:15;6.05;;;4.07;;
71969;SDS011;59838;52.152;5.436;2022-09-29T12:08:01;5.80;;;4.03;;
71969;SDS011;59838;52.152;5.436;2022-09-29T12:13:51;7.33;;;5.43;;
71969;SDS011;59838;52.152;5.436;2022-09-29T12:16:29;8.43;;;4.85;;
71969;SDS011;59838;52.152;5.436;2022-09-29T12:19:07;7.35;;;4.57;;
71969;SDS011;59838;52.152;5.436;2022-09-29T12:21:40;7.22;;;4.65;;
71969;SDS011;59838;52.152;5.436;2022-09-29T12:24:13;6.72;;;5.15;;
71969;SDS011;59838;52.152;5.436;2022-09-29T12:26:44;8.67;;;4.97;;
71969;SDS011;59838;52.152;5.436;2022-09-29T12:32:27;7.50;;;3.92;;
71969;SDS011;59838;52.152;5.436;2022-09-29T12:37:39;7.03;;;3.72;;
71969;SDS011;59838;52.152;5.436;2022-09-29T12:40:21;4.70;;;3.33;;
71969;SDS011;59838;52.152;5.436;2022-09-29T12:45:56;4.15;;;2.90;;
71969;SDS011;59838;52.152;5.436;2022-09-29T12:51:12;4.18;;;2.75;;
71969;SDS011;59838;52.152;5.436;2022-09-29T13:01:56;4.28;;;2.33;;
71969;SDS011;59838;52.152;5.436;2022-09-29T13:13:31;4.68;;;2.70;;
71969;SDS011;59838;52.152;5.436;2022-09-29T13:15:30;6.97;;;2.65;;
71969;SDS011;59838;52.152;5.436;2022-09-29T13:24:00;3.38;;;2.53;;
71969;SDS011;59838;52.152;5.436;2022-09-29T13:29:52;3.63;;;1.70;;
71969;SDS011;59838;52.152;5.436;2022-09-29T13:32:24;5.97;;;2.75;;
71969;SDS011;59838;52.152;5.436;2022-09-29T13:34:53;1.87;;;0.90;;
71969;SDS011;59838;52.152;5.436;2022-09-29T13:37:22;1.95;;;1.20;;
71969;SDS011;59838;52.152;5.436;2022-09-29T13:39:54;2.30;;;1.25;;
71969;SDS011;59838;52.152;5.436;2022-09-29T13:42:38;3.58;;;1.83;;
71969;SDS011;59838;52.152;5.436;2022-09-29T13:58:31;3.67;;;2.20;;
71969;SDS011;59838;52.152;5.436;2022-09-29T14:01:00;4.10;;;2.63;;
71969;SDS011;59838;52.152;5.436;2022-09-29T14:06:03;11.35;;;2.03;;
71969;SDS011;59838;52.152;5.436;2022-09-29T14:08:59;3.13;;;1.80;;
71969;SDS011;59838;52.152;5.436;2022-09-29T14:14:06;2.47;;;0.83;;
71969;SDS011;59838;52.152;5.436;2022-09-29T14:16:54;3.47;;;1.38;;
71969;SDS011;59838;52.152;5.436;2022-09-29T14:19:47;2.65;;;1.23;;
71969;SDS011;59838;52.152;5.436;2022-09-29T14:27:39;2.37;;;1.57;;
71969;SDS011;59838;52.152;5.436;2022-09-29T14:30:18;3.30;;;1.10;;
71969;SDS011;59838;52.152;5.436;2022-09-29T14:33:10;2.22;;;1.02;;
71969;SDS011;59838;52.152;5.436;2022-09-29T14:35:41;2.70;;;1.38;;
71969;SDS011;59838;52.152;5.436;2022-09-29T14:38:16;2.17;;;1.05;;
71969;SDS011;59838;52.152;5.436;2022-09-29T14:43:53;1.20;;;0.52;;
71969;SDS011;59838;52.152;5.436;2022-09-29T14:55:19;1.13;;;0.40;;
71969;SDS011;59838;52.152;5.436;2022-09-29T14:58:19;2.35;;;0.70;;
71969;SDS011;59838;52.152;5.436;2022-09-29T15:01:22;2.28;;;0.68;;
71969;SDS011;59838;52.152;5.436;2022-09-29T15:03:54;2.85;;;0.75;;
71969;SDS011;59838;52.152;5.436;2022-09-29T15:06:25;1.45;;;0.43;;
71969;SDS011;59838;52.152;5.436;2022-09-29T15:09:15;2.37;;;0.70;;
71969;SDS011;59838;52.152;5.436;2022-09-29T15:11:47;0.77;;;0.40;;
71969;SDS011;59838;52.152;5.436;2022-09-29T15:17:02;1.35;;;0.40;;
71969;SDS011;59838;52.152;5.436;2022-09-29T15:25:21;0.40;;;0.28;;
71969;SDS011;59838;52.152;5.436;2022-09-29T15:27:58;1.15;;;0.20;;
71969;SDS011;59838;52.152;5.436;2022-09-29T15:30:27;0.30;;;0.20;;
71969;SDS011;59838;52.152;5.436;2022-09-29T15:33:03;1.15;;;0.20;;
71969;SDS011;59838;52.152;5.436;2022-09-29T15:35:31;0.30;;;0.13;;
71969;SDS011;59838;52.152;5.436;2022-09-29T15:40:52;0.68;;;0.20;;
71969;SDS011;59838;52.152;5.436;2022-09-29T15:43:24;0.80;;;0.30;;
71969;SDS011;59838;52.152;5.436;2022-09-29T15:45:57;1.48;;;0.20;;
71969;SDS011;59838;52.152;5.436;2022-09-29T15:48:29;0.53;;;0.30;;
71969;SDS011;59838;52.152;5.436;2022-09-29T15:50:56;0.95;;;0.20;;
71969;SDS011;59838;52.152;5.436;2022-09-29T15:53:26;0.52;;;0.22;;
71969;SDS011;59838;52.152;5.436;2022-09-29T15:55:56;0.40;;;0.22;;
71969;SDS011;59838;52.152;5.436;2022-09-29T16:00:56;0.70;;;0.20;;
71969;SDS011;59838;52.152;5.436;2022-09-29T16:06:30;0.47;;;0.30;;
71969;SDS011;59838;52.152;5.436;2022-09-29T16:09:01;0.95;;;0.30;;
71969;SDS011;59838;52.152;5.436;2022-09-29T16:11:31;0.70;;;0.22;;
71969;SDS011;59838;52.152;5.436;2022-09-29T16:14:05;5.40;;;0.20;;
71969;SDS011;59838;52.152;5.436;2022-09-29T16:16:36;1.73;;;0.52;;
71969;SDS011;59838;52.152;5.436;2022-09-29T16:19:25;1.02;;;0.40;;
71969;SDS011;59838;52.152;5.436;2022-09-29T16:21:56;0.98;;;0.32;;
71969;SDS011;59838;52.152;5.436;2022-09-29T16:24:28;0.80;;;0.30;;
71969;SDS011;59838;52.152;5.436;2022-09-29T16:26:57;0.90;;;0.40;;
71969;SDS011;59838;52.152;5.436;2022-09-29T16:29:34;1.70;;;0.40;;
71969;SDS011;59838;52.152;5.436;2022-09-29T16:40:44;1.13;;;0.20;;
71969;SDS011;59838;52.152;5.436;2022-09-29T16:46:12;0.85;;;0.30;;
71969;SDS011;59838;52.152;5.436;2022-09-29T16:48:43;0.98;;;0.30;;
71969;SDS011;59838;52.152;5.436;2022-09-29T16:51:18;3.65;;;0.40;;
71969;SDS011;59838;52.152;5.436;2022-09-29T16:54:04;0.87;;;0.33;;
71969;SDS011;59838;52.152;5.436;2022-09-29T16:56:30;1.00;;;0.30;;
71969;SDS011;59838;52.152;5.436;2022-09-29T16:59:08;0.80;;;0.40;;
71969;SDS011;59838;52.152;5.436;2022-09-29T17:01:37;1.15;;;0.50;;
71969;SDS011;59838;52.152;5.436;2022-09-29T17:04:06;1.17;;;0.30;;
71969;SDS011;59838;52.152;5.436;2022-09-29T17:06:33;0.60;;;0.40;;
71969;SDS011;59838;52.152;5.436;2022-09-29T17:08:59;2.70;;;0.60;;
71969;SDS011;59838;52.152;5.436;2022-09-29T17:11:28;0.55;;;0.22;;
71969;SDS011;59838;52.152;5.436;2022-09-29T17:13:55;0.70;;;0.30;;
71969;SDS011;59838;52.152;5.436;2022-09-29T17:16:22;2.30;;;0.30;;
71969;SDS011;59838;52.152;5.436;2022-09-29T17:18:50;1.40;;;0.40;;
71969;SDS011;59838;52.152;5.436;2022-09-29T17:21:18;1.80;;;0.30;;
71969;SDS011;59838;52.152;5.436;2022-09-29T17:23:45;2.10;;;0.65;;
71969;SDS011;59838;52.152;5.436;2022-09-29T17:26:16;1.50;;;0.40;;
71969;SDS011;59838;52.152;5.436;2022-09-29T17:29:18;1.90;;;0.55;;
71969;SDS011;59838;52.152;5.436;2022-09-29T17:31:44;1.13;;;0.40;;
71969;SDS011;59838;52.152;5.436;2022-09-29T17:34:11;3.20;;;1.38;;
71969;SDS011;59838;52.152;5.436;2022-09-29T17:36:37;6.32;;;3.05;;
71969;SDS011;59838;52.152;5.436;2022-09-29T17:39:04;4.40;;;1.20;;
71969;SDS011;59838;52.152;5.436;2022-09-29T17:41:30;2.58;;;1.30;;
71969;SDS011;59838;52.152;5.436;2022-09-29T17:43:57;1.70;;;0.60;;
71969;SDS011;59838;52.152;5.436;2022-09-29T17:46:23;1.55;;;0.73;;
71969;SDS011;59838;52.152;5.436;2022-09-29T17:48:50;1.90;;;0.60;;
71969;SDS011;59838;52.152;5.436;2022-09-29T17:51:16;1.67;;;0.77;;
71969;SDS011;59838;52.152;5.436;2022-09-29T17:53:43;1.70;;;0.57;;
71969;SDS011;59838;52.152;5.436;2022-09-29T17:56:20;2.93;;;0.77;;
71969;SDS011;59838;52.152;5.436;2022-09-29T17:58:51;1.30;;;0.75;;
71969;SDS011;59838;52.152;5.436;2022-09-29T18:01:20;1.58;;;0.80;;
71969;SDS011;59838;52.152;5.436;2022-09-29T18:03:48;3.25;;;1.48;;
71969;SDS011;59838;52.152;5.436;2022-09-29T18:06:19;5.10;;;2.60;;
71969;SDS011;59838;52.152;5.436;2022-09-29T18:08:48;4.23;;;1.50;;
71969;SDS011;59838;52.152;5.436;2022-09-29T18:11:20;2.80;;;1.20;;
71969;SDS011;59838;52.152;5.436;2022-09-29T18:13:48;1.92;;;0.98;;
71969;SDS011;59838;52.152;5.436;2022-09-29T18:16:19;3.55;;;0.68;;
71969;SDS011;59838;52.152;5.436;2022-09-29T18:18:47;3.67;;;1.00;;